Nekoosa, Wisconsin
Current Conditions -  °F | °C
As of 1:54 PM on Friday 28 Nov 2014 (Local Time) from KISW Reporting Station
Overcast Overcast  
Wind Chill: 14°   Ceiling: 2000
Heat Index: 22°   Visibility: NA
Dew Point: 14°   Wind: 6mph
Humidity: 72%   Direction: 110°ESE
Pressure: 29.95"   Gusts: NA
Location:  44.31°N, 89.9°W
Report Text: KISW 281954Z AUTO 11005KT BKN020 OVC075 M06/M10 A2995 RMK AO2 SLP162 T10561100 $
Loading
Personal Weather Stations






























Interactive Weather Map New forecast layout! Learn more

10-Day Weather Forecast

Advertisements
Track Severe Weather on mobile